Time;durP1;ratioP1;P1;durP2;ratioP2;P2;SDS_P1;SDS_P2;PMS_P1;PMS_P2;Temp;Humidity;BMP_temperature;BMP_pressure;BME280_temperature;BME280_humidity;BME280_pressure;Samples;Min_cycle;Max_cycle;Signal;HPM_P1;HPM_P2
2021/08/29 00:00:13;;;;;;;6.97;5.13;;;;;;;9.43;100.00;96244.97;1023837;28;20023;-54
2021/08/29 00:00:44;;;;;;;7.97;5.32;;;;;;;9.46;100.00;96246.53;1020530;28;20074;-53
2021/08/29 00:01:15;;;;;;;6.80;5.50;;;;;;;9.45;100.00;96245.69;1028001;28;20552;-53
2021/08/29 00:01:45;;;;;;;8.55;5.43;;;;;;;9.43;100.00;96244.97;1028190;28;20433;-53
2021/08/29 00:02:16;;;;;;;7.13;5.43;;;;;;;9.47;100.00;96250.84;1028041;28;20105;-53
2021/08/29 00:02:47;;;;;;;7.72;5.60;;;;;;;9.48;100.00;96252.53;1023863;29;20081;-52
2021/08/29 00:03:17;;;;;;;6.43;5.75;;;;;;;9.48;100.00;96255.16;1020033;29;20111;-53
2021/08/29 00:03:48;;;;;;;7.45;5.70;;;;;;;9.46;100.00;96244.78;1027762;28;20106;-53
2021/08/29 00:04:19;;;;;;;7.78;6.03;;;;;;;9.49;100.00;96246.34;1023967;29;20063;-53
2021/08/29 00:04:49;;;;;;;8.02;6.20;;;;;;;9.49;100.00;96248.97;1024312;28;20023;-54
2021/08/29 00:05:20;;;;;;;7.40;5.88;;;;;;;9.51;100.00;96252.34;1031728;28;20085;-53
2021/08/29 00:05:51;;;;;;;6.35;5.15;;;;;;;9.52;100.00;96249.63;1032066;28;20125;-53
2021/08/29 00:06:21;;;;;;;7.53;5.88;;;;;;;9.48;100.00;96249.91;1027910;28;20069;-53
2021/08/29 00:06:52;;;;;;;7.57;6.10;;;;;;;9.48;100.00;96255.97;1023895;29;20027;-53
2021/08/29 00:07:22;;;;;;;9.10;5.75;;;;;;;9.45;100.00;96245.69;1024067;29;20114;-53
2021/08/29 00:07:53;;;;;;;8.05;5.95;;;;;;;9.45;100.00;96253.53;1024110;28;20034;-53
2021/08/29 00:08:23;;;;;;;8.30;5.63;;;;;;;9.48;100.00;96250.75;1032177;28;20399;-53
2021/08/29 00:08:54;;;;;;;8.68;6.20;;;;;;;9.53;100.00;96253.06;1040196;28;20030;-52
2021/08/29 00:09:24;;;;;;;7.47;6.43;;;;;;;9.57;100.00;96256.34;1040155;28;20439;-52
2021/08/29 00:09:55;;;;;;;6.75;5.40;;;;;;;9.55;100.00;96253.81;1031973;28;20023;-53
2021/08/29 00:10:25;;;;;;;7.90;6.53;;;;;;;9.56;100.00;96252.91;1027951;28;20081;-53
2021/08/29 00:10:57;;;;;;;7.70;5.47;;;;;;;9.54;100.00;96255.59;1023987;29;20050;-54
2021/08/29 00:11:28;;;;;;;6.68;5.45;;;;;;;9.54;100.00;96252.97;1024384;28;20019;-52
2021/08/29 00:11:58;;;;;;;8.95;6.50;;;;;;;9.55;100.00;96253.81;1028393;28;20762;-53
2021/08/29 00:12:29;;;;;;;7.72;5.95;;;;;;;9.57;100.00;96256.34;1028159;28;20054;-53
2021/08/29 00:13:00;;;;;;;7.95;6.50;;;;;;;9.53;100.00;96246.09;1032396;28;20033;-53
2021/08/29 00:13:30;;;;;;;9.70;6.72;;;;;;;9.54;100.00;96255.59;1032014;28;20594;-52
2021/08/29 00:14:01;;;;;;;8.38;6.43;;;;;;;9.57;100.00;96251.13;1032374;28;20046;-53
2021/08/29 00:14:32;;;;;;;7.28;6.00;;;;;;;9.57;100.00;96251.13;1040316;28;20478;-53
2021/08/29 00:15:03;;;;;;;10.70;6.85;;;;;;;9.56;100.00;96257.28;1036129;28;20299;-53
2021/08/29 00:15:34;;;;;;;9.82;6.43;;;;;;;9.57;100.00;96256.34;1036090;28;20121;-54
2021/08/29 00:16:05;;;;;;;11.00;6.30;;;;;;;9.59;100.00;96251.84;1031862;28;20340;-53
2021/08/29 00:16:35;;;;;;;7.03;5.88;;;;;;;9.59;100.00;96247.50;1028627;28;20401;-53
2021/08/29 00:17:06;;;;;;;8.23;6.65;;;;;;;9.61;100.00;96249.97;1036338;28;20061;-53
2021/08/29 00:17:37;;;;;;;9.88;6.20;;;;;;;9.60;100.00;96248.31;1036217;28;20513;-52
2021/08/29 00:18:08;;;;;;;7.80;6.25;;;;;;;9.62;100.00;96249.06;1036134;28;20391;-54
2021/08/29 00:18:39;;;;;;;8.30;6.28;;;;;;;9.64;100.00;96250.63;1035961;28;20052;-53
2021/08/29 00:19:10;;;;;;;8.73;6.03;;;;;;;9.66;100.00;96246.16;1036185;28;20761;-53
2021/08/29 00:19:40;;;;;;;9.65;6.43;;;;;;;9.65;100.00;96246.28;1040421;28;20252;-53
2021/08/29 00:20:11;;;;;;;7.65;6.07;;;;;;;9.67;100.00;96247.00;1044408;28;20048;-52
2021/08/29 00:20:44;;;;;;;6.93;6.10;;;;;;;9.64;100.00;96245.41;1044152;28;20021;-53
2021/08/29 00:21:15;;;;;;;8.02;6.60;;;;;;;9.67;100.00;96247.84;1039984;28;20302;-53
2021/08/29 00:21:45;;;;;;;7.47;6.32;;;;;;;9.68;100.00;96241.66;1036111;28;20351;-52
2021/08/29 00:22:16;;;;;;;7.28;5.80;;;;;;;9.70;100.00;96247.66;1032200;28;20095;-53
2021/08/29 00:22:47;;;;;;;8.18;6.57;;;;;;;9.68;100.00;96240.81;1031919;28;20015;-52
2021/08/29 00:23:17;;;;;;;7.68;6.30;;;;;;;9.66;100.00;96234.84;1036134;28;20271;-53
2021/08/29 00:23:48;;;;;;;8.52;6.38;;;;;;;9.69;100.00;96240.75;1036128;28;20076;-53
2021/08/29 00:24:19;;;;;;;8.70;6.97;;;;;;;9.65;100.00;96238.41;1036009;28;20021;-52
2021/08/29 00:24:49;;;;;;;7.65;6.13;;;;;;;9.69;100.00;96239.91;1040073;28;20472;-52
2021/08/29 00:25:20;;;;;;;7.35;6.22;;;;;;;9.70;100.00;96244.19;1040208;28;20068;-53
2021/08/29 00:25:51;;;;;;;8.35;6.50;;;;;;;9.72;100.00;96242.31;1040117;28;20105;-52
2021/08/29 00:26:23;;;;;;;8.93;6.47;;;;;;;9.68;100.00;96236.44;1035851;28;20024;-53
2021/08/29 00:26:54;;;;;;;9.18;6.07;;;;;;;9.75;100.00;96238.69;1032055;28;20266;-51
2021/08/29 00:27:25;;;;;;;7.13;5.65;;;;;;;9.75;100.00;96238.69;1024293;28;20796;-53
2021/08/29 00:27:55;;;;;;;10.05;6.70;;;;;;;9.71;100.00;96233.63;1031771;28;20491;-52
2021/08/29 00:28:26;;;;;;;7.28;5.88;;;;;;;9.76;100.00;96235.13;1031737;28;20026;-52
2021/08/29 00:28:56;;;;;;;7.85;6.35;;;;;;;9.75;100.00;96239.50;1035795;28;20051;-53
2021/08/29 00:29:27;;;;;;;9.15;6.93;;;;;;;9.71;100.00;96227.56;1031971;28;20105;-54
2021/08/29 00:29:58;;;;;;;7.40;6.32;;;;;;;9.72;100.00;96235.31;1035849;28;20396;-53
2021/08/29 00:30:28;;;;;;;7.95;6.30;;;;;;;9.73;100.00;96231.75;1035747;28;20097;-53
2021/08/29 00:30:59;;;;;;;9.65;6.85;;;;;;;9.72;100.00;96232.72;1036029;28;20013;-53
2021/08/29 00:31:29;;;;;;;7.60;5.88;;;;;;;9.72;100.00;96234.47;1032064;28;20027;-53
2021/08/29 00:32:00;;;;;;;8.30;6.63;;;;;;;9.71;100.00;96232.81;1040102;28;20109;-52
2021/08/29 00:32:31;;;;;;;8.98;6.65;;;;;;;9.76;100.00;96228.13;1031691;28;20057;-52
2021/08/29 00:33:02;;;;;;;7.10;6.13;;;;;;;9.78;100.00;96228.88;1027903;28;20362;-53
2021/08/29 00:33:32;;;;;;;8.93;6.22;;;;;;;9.77;100.00;96226.34;1027807;28;20097;-52
2021/08/29 00:34:03;;;;;;;7.97;6.57;;;;;;;9.79;100.00;96217.44;1031878;28;20010;-54
2021/08/29 00:34:34;;;;;;;6.93;5.88;;;;;;;9.83;100.00;96226.78;1027961;28;20017;-52
2021/08/29 00:35:05;;;;;;;6.22;5.45;;;;;;;9.82;100.00;96219.06;1035965;28;20053;-53
2021/08/29 00:35:36;;;;;;;7.15;6.32;;;;;;;9.82;100.00;96219.06;1035840;28;20021;-53
2021/08/29 00:36:06;;;;;;;7.75;6.10;;;;;;;9.83;100.00;96218.09;1035940;28;20086;-53
2021/08/29 00:36:37;;;;;;;7.63;5.68;;;;;;;9.83;100.00;96220.72;1036087;28;20030;-53
2021/08/29 00:37:08;;;;;;;9.27;5.53;;;;;;;9.85;100.00;96217.09;1036120;28;20471;-52
2021/08/29 00:37:39;;;;;;;8.93;5.72;;;;;;;9.83;100.00;96213.69;1031804;28;20018;-52
2021/08/29 00:38:09;;;;;;;7.70;6.18;;;;;;;9.82;100.00;96216.44;1028073;28;20488;-52
2021/08/29 00:38:40;;;;;;;9.55;6.05;;;;;;;9.84;100.00;96212.78;1028037;28;20027;-54
2021/08/29 00:39:10;;;;;;;8.32;5.90;;;;;;;9.84;100.00;96219.78;1032080;28;20010;-52
2021/08/29 00:39:42;;;;;;;8.15;6.00;;;;;;;9.82;100.00;96205.97;1036025;28;20096;-53
2021/08/29 00:40:16;;;;;;;7.38;6.03;;;;;;;9.81;100.00;96212.94;1035634;28;20482;-53
2021/08/29 00:40:47;;;;;;;8.35;6.95;;;;;;;9.82;100.00;96212.03;1028506;28;20089;-53
2021/08/29 00:41:18;;;;;;;9.50;6.40;;;;;;;9.83;100.00;96215.47;1029369;28;20026;-53
2021/08/29 00:41:48;;;;;;;8.70;6.55;;;;;;;9.85;100.00;96213.59;1032380;28;20252;-53
2021/08/29 00:42:19;;;;;;;9.10;6.78;;;;;;;9.83;100.00;96212.88;1036215;28;20443;-53
2021/08/29 00:42:50;;;;;;;8.38;7.00;;;;;;;9.86;100.00;96218.75;1039991;28;20100;-52
2021/08/29 00:43:21;;;;;;;7.75;6.85;;;;;;;9.86;100.00;96216.13;1044227;28;20024;-52
2021/08/29 00:43:52;;;;;;;7.10;6.20;;;;;;;9.91;100.00;96216.69;1044498;28;20025;-53
2021/08/29 00:44:23;;;;;;;7.30;6.25;;;;;;;9.89;100.00;96220.31;1044089;28;20009;-53
2021/08/29 00:44:53;;;;;;;9.45;7.30;;;;;;;9.90;100.00;96220.22;1035795;28;20056;-53
2021/08/29 00:45:26;;;;;;;7.35;6.43;;;;;;;9.88;100.00;96216.88;1027077;28;20025;-52
2021/08/29 00:45:56;;;;;;;10.13;5.75;;;;;;;9.90;100.00;96220.22;1027699;28;20022;-53
2021/08/29 00:46:27;;;;;;;7.70;6.43;;;;;;;9.88;100.00;96214.25;1031782;28;20511;-54
2021/08/29 00:46:57;;;;;;;7.10;6.10;;;;;;;9.88;100.00;96213.41;1028636;28;20030;-53
2021/08/29 00:47:31;;;;;;;8.07;6.07;;;;;;;9.90;100.00;96215.00;1031821;28;20117;-54
2021/08/29 00:48:02;;;;;;;7.03;5.85;;;;;;;9.90;100.00;96216.78;1032181;28;20085;-52
2021/08/29 00:48:32;;;;;;;7.50;6.25;;;;;;;9.88;100.00;96214.25;1024310;28;20489;-53
2021/08/29 00:49:03;;;;;;;7.45;6.18;;;;;;;9.92;100.00;96212.28;1024287;28;20134;-52
2021/08/29 00:49:41;;;;;;;8.40;6.53;;;;;;;9.90;100.00;96207.13;1023820;28;20054;-53
2021/08/29 00:50:12;;;;;;;8.05;5.70;;;;;;;9.87;100.00;96212.59;1027557;28;20453;-52
2021/08/29 00:50:44;;;;;;;8.25;6.30;;;;;;;9.86;100.00;96210.91;1037172;28;20109;-52
2021/08/29 00:51:14;;;;;;;8.27;6.18;;;;;;;9.90;100.00;96207.13;1031747;28;20057;-52
2021/08/29 00:51:49;;;;;;;7.38;5.75;;;;;;;9.88;100.00;96209.00;1032174;28;20080;-53
2021/08/29 00:52:20;;;;;;;8.98;6.03;;;;;;;9.88;100.00;96209.00;1035951;28;20072;-53
2021/08/29 00:52:51;;;;;;;8.73;6.68;;;;;;;9.82;100.00;96211.19;1033859;28;20018;-52
2021/08/29 00:53:21;;;;;;;7.72;6.47;;;;;;;9.83;100.00;96212.88;1040001;28;20356;-52
2021/08/29 00:53:53;;;;;;;7.20;5.88;;;;;;;9.83;100.00;96210.25;1035746;28;20026;-54
2021/08/29 00:54:23;;;;;;;7.15;6.40;;;;;;;9.87;100.00;96211.72;1032092;28;20049;-52
2021/08/29 00:54:54;;;;;;;6.50;5.50;;;;;;;9.89;100.00;96210.72;1035709;28;20032;-53
2021/08/29 00:55:24;;;;;;;7.32;6.20;;;;;;;9.88;100.00;96211.63;1031637;28;20085;-53
2021/08/29 00:55:55;;;;;;;6.45;5.78;;;;;;;9.93;100.00;96209.56;1031782;28;20034;-53
2021/08/29 00:56:27;;;;;;;6.68;5.82;;;;;;;9.92;100.00;96213.13;1027907;28;20527;-53
2021/08/29 00:56:58;;;;;;;7.13;6.20;;;;;;;9.89;100.00;96215.94;1023919;28;20031;-53
2021/08/29 00:57:29;;;;;;;7.38;5.60;;;;;;;9.90;100.00;96215.00;1028076;28;20033;-53
2021/08/29 00:57:59;;;;;;;8.10;6.32;;;;;;;9.91;100.00;96210.63;1036061;28;20022;-53
2021/08/29 00:58:30;;;;;;;8.60;6.13;;;;;;;9.89;100.00;96208.09;1040112;28;20052;-54
2021/08/29 00:59:00;;;;;;;8.43;5.90;;;;;;;9.88;100.00;96205.56;1044048;28;20023;-52
2021/08/29 00:59:31;;;;;;;7.43;5.85;;;;;;;9.88;100.00;96205.56;1039876;28;20045;-52
2021/08/29 01:00:03;;;;;;;7.05;6.22;;;;;;;9.86;100.00;96210.06;1035738;28;20109;-53
2021/08/29 01:00:36;;;;;;;7.30;5.60;;;;;;;9.89;100.00;96212.47;1036260;28;20518;-53
2021/08/29 01:01:07;;;;;;;8.93;5.80;;;;;;;9.87;100.00;96209.09;1036506;28;20104;-53
2021/08/29 01:01:58;;;;;;;8.55;5.50;;;;;;;9.96;100.00;96211.16;1035676;28;20053;-53
2021/08/29 01:02:28;;;;;;;7.18;5.85;;;;;;;9.92;100.00;96207.88;1035862;28;20475;-52
2021/08/29 01:02:59;;;;;;;7.43;6.18;;;;;;;9.91;100.00;96203.59;1035565;28;20052;-52
2021/08/29 01:03:30;;;;;;;7.10;5.97;;;;;;;9.92;100.00;96205.25;1031950;28;20523;-53
2021/08/29 01:04:00;;;;;;;6.90;6.00;;;;;;;9.92;100.00;96202.66;1031659;28;20034;-53
2021/08/29 01:04:34;;;;;;;7.20;6.18;;;;;;;9.97;100.00;96204.16;1035730;28;20487;-53
2021/08/29 01:05:09;;;;;;;8.73;6.50;;;;;;;9.98;100.00;96203.19;1035711;28;20097;-53
2021/08/29 01:05:44;;;;;;;10.68;6.75;;;;;;;10.00;100.00;96206.56;1031748;28;20076;-53
2021/08/29 01:06:22;;;;;;;7.00;5.82;;;;;;;9.95;100.00;96203.38;1031723;28;20014;-53
2021/08/29 01:06:57;;;;;;;8.10;5.97;;;;;;;9.93;100.00;96203.50;1031653;28;20053;-52
2021/08/29 01:07:33;;;;;;;7.50;5.72;;;;;;;9.91;100.00;96202.78;1038163;28;20253;-53
2021/08/29 01:08:09;;;;;;;7.00;5.60;;;;;;;9.92;100.00;96197.41;1031662;28;20270;-53
2021/08/29 01:08:40;;;;;;;7.03;5.65;;;;;;;9.91;100.00;96203.59;1027825;28;20015;-53
2021/08/29 01:09:12;;;;;;;6.78;5.40;;;;;;;9.92;100.00;96197.41;1029190;28;20019;-53
2021/08/29 01:09:42;;;;;;;7.50;5.50;;;;;;;9.91;100.00;96203.59;1035769;28;20116;-54
2021/08/29 01:10:18;;;;;;;8.02;5.75;;;;;;;9.92;100.00;96197.41;1035637;28;20936;-52
2021/08/29 01:11:06;;;;;;;9.38;6.10;;;;;;;9.95;100.00;96196.41;1035934;28;20022;-53
2021/08/29 01:11:37;;;;;;;8.38;5.35;;;;;;;9.96;100.00;96199.84;1038951;28;20276;-53
2021/08/29 01:12:08;;;;;;;7.43;6.03;;;;;;;9.96;100.00;96198.06;1043075;28;20104;-53
2021/08/29 01:12:39;;;;;;;7.68;6.10;;;;;;;9.92;100.00;96197.41;1039849;28;20457;-54
2021/08/29 01:13:13;;;;;;;8.73;5.28;;;;;;;9.91;100.00;96198.38;1025369;28;20523;-52
2021/08/29 01:13:45;;;;;;;7.15;5.15;;;;;;;9.94;100.00;96205.16;1019853;29;20267;-52
2021/08/29 01:14:22;;;;;;;8.40;5.72;;;;;;;9.93;100.00;96203.50;1020574;29;20264;-53
2021/08/29 01:14:53;;;;;;;7.70;5.55;;;;;;;9.93;100.00;96195.66;1028618;28;20286;-53
2021/08/29 01:15:23;;;;;;;6.65;5.82;;;;;;;9.96;100.00;96198.06;1028860;28;20531;-53
2021/08/29 01:15:55;;;;;;;5.75;4.95;;;;;;;9.99;100.00;96197.88;1032922;28;20462;-53
2021/08/29 01:16:28;;;;;;;6.75;5.18;;;;;;;9.98;100.00;96200.59;1031722;28;20018;-53
2021/08/29 01:17:00;;;;;;;7.72;5.88;;;;;;;9.95;100.00;96206.00;1035216;28;20886;-54
2021/08/29 01:17:32;;;;;;;7.97;5.93;;;;;;;9.92;100.00;96200.03;1028469;28;20070;-53
2021/08/29 01:18:03;;;;;;;6.43;5.47;;;;;;;10.01;100.00;96203.00;1027743;28;20616;-52
2021/08/29 01:18:34;;;;;;;8.02;5.20;;;;;;;9.99;100.00;96202.28;1025073;28;20118;-53
2021/08/29 01:19:09;;;;;;;6.30;4.90;;;;;;;10.04;100.00;96200.19;1031622;28;20081;-53
2021/08/29 01:19:46;;;;;;;6.18;5.00;;;;;;;10.09;100.00;96200.72;1031654;28;20078;-53
2021/08/29 01:20:41;;;;;;;8.68;5.40;;;;;;;10.09;100.00;96193.72;1027710;28;20015;-53
2021/08/29 01:21:15;;;;;;;6.07;5.05;;;;;;;10.10;100.00;96194.56;1027864;28;20276;-52
2021/08/29 01:21:46;;;;;;;6.45;5.05;;;;;;;10.05;100.00;96194.03;1027696;28;20580;-52
2021/08/29 01:22:17;;;;;;;5.60;4.53;;;;;;;10.06;100.00;96195.69;1027746;28;20278;-53
2021/08/29 01:22:49;;;;;;;6.82;4.78;;;;;;;10.05;100.00;96192.22;1031470;28;20109;-52
2021/08/29 01:23:19;;;;;;;5.90;4.50;;;;;;;10.07;100.00;96190.34;1027460;28;20054;-52
2021/08/29 01:23:55;;;;;;;6.07;5.28;;;;;;;10.05;100.00;96191.41;1028038;28;20042;-53
2021/08/29 01:24:26;;;;;;;8.20;5.38;;;;;;;10.00;100.00;96183.81;1031667;28;20018;-53
2021/08/29 01:24:58;;;;;;;6.38;4.78;;;;;;;10.08;100.00;96191.22;1031379;28;20056;-53
2021/08/29 01:25:32;;;;;;;6.30;4.90;;;;;;;10.10;100.00;96194.56;1031667;28;20021;-53
2021/08/29 01:26:12;;;;;;;5.93;4.53;;;;;;;10.07;100.00;96190.34;1031785;28;20404;-53
2021/08/29 01:26:56;;;;;;;7.38;4.65;;;;;;;10.02;100.00;96189.84;1035829;28;20027;-53
2021/08/29 01:27:33;;;;;;;9.57;5.32;;;;;;;9.98;100.00;96190.13;1036358;28;20487;-53
2021/08/29 01:28:16;;;;;;;8.73;5.07;;;;;;;10.06;100.00;96195.69;1032391;28;20269;-53
2021/08/29 01:29:07;;;;;;;6.75;4.90;;;;;;;10.09;100.00;96191.09;1039664;28;20021;-53
2021/08/29 01:29:37;;;;;;;;;;;;;;;10.06;100.00;96193.06;1028529;28;20025;-54
2021/08/29 01:30:08;;;;;;;6.53;4.75;;;;;;;10.04;100.00;96189.72;1027644;28;19903;-53
2021/08/29 01:30:39;;;;;;;7.00;4.80;;;;;;;10.02;100.00;96181.97;1023670;28;20019;-54
2021/08/29 01:31:10;;;;;;;6.95;5.30;;;;;;;10.02;100.00;96188.97;1020043;28;20102;-52
2021/08/29 01:31:41;;;;;;;6.60;5.35;;;;;;;10.01;100.00;96187.31;1031124;28;20247;-52
2021/08/29 01:32:12;;;;;;;6.18;5.00;;;;;;;9.99;100.00;96192.63;1033311;28;20017;-53
2021/08/29 01:32:42;;;;;;;6.88;4.95;;;;;;;9.98;100.00;96187.50;1026685;28;20026;-53
2021/08/29 01:33:14;;;;;;;6.70;5.25;;;;;;;10.00;100.00;96185.63;1031350;28;20010;-53
2021/08/29 01:33:44;;;;;;;7.75;5.47;;;;;;;9.95;100.00;96190.28;1032016;28;20442;-53
2021/08/29 01:34:16;;;;;;;7.85;5.85;;;;;;;9.93;100.00;96195.66;1023951;28;20308;-53
2021/08/29 01:34:47;;;;;;;6.43;5.55;;;;;;;9.91;100.00;96190.50;1028157;28;20019;-53
2021/08/29 01:35:18;;;;;;;7.15;5.50;;;;;;;10.01;100.00;96195.16;1023582;28;20345;-53
2021/08/29 01:35:49;;;;;;;6.25;5.18;;;;;;;10.04;100.00;96194.94;1024057;28;20255;-53
2021/08/29 01:36:19;;;;;;;7.03;5.68;;;;;;;10.01;100.00;96196.00;1027473;28;20416;-54
2021/08/29 01:36:52;;;;;;;7.70;4.70;;;;;;;9.97;100.00;96196.31;1027231;28;20031;-53
2021/08/29 01:37:23;;;;;;;6.50;5.38;;;;;;;9.95;100.00;96190.28;1028742;28;20015;-52
2021/08/29 01:37:54;;;;;;;6.53;5.28;;;;;;;10.03;100.00;96195.91;1032267;28;20444;-53
2021/08/29 01:38:24;;;;;;;6.28;4.80;;;;;;;10.04;100.00;96187.09;1027971;28;20042;-53
2021/08/29 01:38:55;;;;;;;8.05;5.65;;;;;;;10.05;100.00;96194.84;1023784;29;20016;-53
2021/08/29 01:39:26;;;;;;;7.03;5.45;;;;;;;10.06;100.00;96193.06;1031689;28;20089;-53
2021/08/29 01:39:56;;;;;;;6.93;5.10;;;;;;;10.04;100.00;96194.94;1039848;28;20017;-53
2021/08/29 01:40:27;;;;;;;7.00;5.55;;;;;;;10.03;100.00;96194.13;1039819;28;20753;-53
2021/08/29 01:40:59;;;;;;;6.53;4.90;;;;;;;10.05;100.00;96191.41;1033071;28;20383;-53
2021/08/29 01:41:31;;;;;;;6.28;4.97;;;;;;;10.02;100.00;96189.84;1023754;29;20508;-53
2021/08/29 01:42:02;;;;;;;7.57;5.18;;;;;;;10.01;100.00;96192.53;1019753;29;20118;-53
2021/08/29 01:42:32;;;;;;;6.85;5.68;;;;;;;10.06;100.00;96188.69;1023494;29;20026;-53
2021/08/29 01:43:03;;;;;;;6.55;5.50;;;;;;;10.06;100.00;96190.44;1024153;28;20022;-53
2021/08/29 01:43:34;;;;;;;6.63;5.15;;;;;;;10.10;100.00;96195.41;1027642;28;20397;-52
2021/08/29 01:44:05;;;;;;;6.35;5.47;;;;;;;10.13;100.00;96189.13;1024020;28;20028;-52
2021/08/29 01:44:36;;;;;;;6.30;5.32;;;;;;;10.16;100.00;96191.56;1032141;28;20495;-51
2021/08/29 01:45:07;;;;;;;6.60;5.38;;;;;;;10.12;100.00;96190.91;1033683;28;20014;-53
2021/08/29 01:45:38;;;;;;;6.90;5.18;;;;;;;10.14;100.00;96188.19;1025772;28;20045;-52
2021/08/29 01:46:08;;;;;;;7.05;5.35;;;;;;;10.10;100.00;96187.56;1027909;28;20014;-52
2021/08/29 01:46:40;;;;;;;7.63;5.63;;;;;;;10.11;100.00;96193.63;1027588;28;20055;-52
2021/08/29 01:47:11;;;;;;;7.57;6.00;;;;;;;10.11;100.00;96185.75;1031912;28;20096;-52
2021/08/29 01:47:42;;;;;;;6.55;4.75;;;;;;;10.12;100.00;96192.69;1035371;28;20010;-52
2021/08/29 01:48:12;;;;;;;7.82;5.40;;;;;;;10.09;100.00;96177.16;1035811;28;20045;-52
2021/08/29 01:48:43;;;;;;;10.02;5.60;;;;;;;10.06;100.00;96186.06;1027540;28;20550;-52
2021/08/29 01:49:13;;;;;;;7.63;5.97;;;;;;;10.03;100.00;96193.28;1019945;28;20525;-52
2021/08/29 01:49:45;;;;;;;8.15;5.90;;;;;;;10.06;100.00;96186.06;1027734;28;20023;-54
2021/08/29 01:50:15;;;;;;;7.53;5.63;;;;;;;10.08;100.00;96188.59;1027976;28;20034;-52
2021/08/29 01:50:46;;;;;;;8.10;5.43;;;;;;;10.08;100.00;96191.22;1031950;28;20025;-52
2021/08/29 01:51:17;;;;;;;7.38;5.40;;;;;;;10.04;100.00;96187.09;1027868;28;20069;-53
2021/08/29 01:51:47;;;;;;;9.05;5.35;;;;;;;10.08;100.00;96193.84;1031881;28;20068;-52
2021/08/29 01:52:18;;;;;;;7.97;5.10;;;;;;;10.16;100.00;96193.34;1036069;28;20178;-54
2021/08/29 01:52:49;;;;;;;7.93;5.35;;;;;;;10.18;100.00;96194.06;1039825;28;20478;-52
2021/08/29 01:53:19;;;;;;;6.18;4.80;;;;;;;10.14;100.00;96190.81;1043753;28;20013;-53
2021/08/29 01:53:50;;;;;;;6.25;5.10;;;;;;;10.16;100.00;96185.47;1039853;28;20041;-52
2021/08/29 01:54:20;;;;;;;9.80;6.03;;;;;;;10.15;100.00;96187.25;1035696;28;20022;-52
2021/08/29 01:54:51;;;;;;;8.82;5.75;;;;;;;10.12;100.00;96187.47;1035709;28;20033;-53
2021/08/29 01:55:22;;;;;;;7.15;5.20;;;;;;;10.16;100.00;96188.94;1027385;28;20488;-53
2021/08/29 01:55:52;;;;;;;7.40;5.55;;;;;;;10.19;100.00;96186.13;1031653;28;20026;-53
2021/08/29 01:56:23;;;;;;;6.38;5.15;;;;;;;10.21;100.00;96186.00;1031601;28;20038;-52
2021/08/29 01:57:03;;;;;;;6.90;5.55;;;;;;;10.20;100.00;96182.56;1032154;28;20500;-52
2021/08/29 01:57:34;;;;;;;7.25;5.57;;;;;;;10.20;100.00;96185.16;1035616;28;20045;-52
2021/08/29 01:58:04;;;;;;;6.32;5.43;;;;;;;10.21;100.00;96186.00;1028948;28;20027;-53
2021/08/29 01:58:35;;;;;;;6.90;5.32;;;;;;;10.17;100.00;96190.59;1023504;29;20023;-52
2021/08/29 01:59:06;;;;;;;5.95;5.28;;;;;;;10.20;100.00;96184.34;1023554;29;20158;-52
2021/08/29 01:59:38;;;;;;;7.15;5.40;;;;;;;10.16;100.00;96177.63;1027326;28;20015;-53
2021/08/29 02:00:09;;;;;;;6.82;5.57;;;;;;;10.12;100.00;96176.97;1031442;28;20280;-52
2021/08/29 02:00:49;;;;;;;7.85;5.20;;;;;;;10.13;100.00;96186.50;1028007;28;20019;-52
2021/08/29 02:01:19;;;;;;;7.80;5.57;;;;;;;10.12;100.00;96183.06;1031461;28;20022;-52
2021/08/29 02:01:50;;;;;;;7.93;5.57;;;;;;;10.13;100.00;96183.88;1025142;28;20031;-52
2021/08/29 02:02:21;;;;;;;6.80;5.47;;;;;;;10.18;100.00;96178.38;1031723;28;20558;-53
2021/08/29 02:02:51;;;;;;;7.65;5.47;;;;;;;10.24;100.00;96180.56;1035522;28;20025;-52
2021/08/29 02:03:23;;;;;;;9.68;5.30;;;;;;;10.23;100.00;96181.50;1035896;28;20028;-52
2021/08/29 02:03:54;;;;;;;7.25;6.10;;;;;;;10.20;100.00;96172.06;1035650;28;20037;-52
2021/08/29 02:04:24;;;;;;;10.63;5.30;;;;;;;10.20;100.00;96174.69;1035689;28;20045;-53
2021/08/29 02:04:55;;;;;;;7.35;5.07;;;;;;;10.17;100.00;96180.13;1035838;28;20033;-53
2021/08/29 02:05:26;;;;;;;8.48;5.55;;;;;;;10.14;100.00;96176.88;1035646;28;20041;-53
2021/08/29 02:06:18;;;;;;;6.43;5.55;;;;;;;10.11;100.00;96170.88;1035558;28;20013;-53
2021/08/29 02:06:48;;;;;;;7.88;5.03;;;;;;;10.15;100.00;96168.91;1031675;28;20472;-52
2021/08/29 02:07:29;;;;;;;8.20;5.63;;;;;;;10.13;100.00;96168.16;1031657;28;20010;-54
2021/08/29 02:08:00;;;;;;;8.38;5.68;;;;;;;10.12;100.00;96167.34;1039628;28;20021;-52
2021/08/29 02:08:30;;;;;;;8.68;5.95;;;;;;;10.14;100.00;96174.28;1027576;28;20018;-53
2021/08/29 02:09:04;;;;;;;6.53;5.55;;;;;;;10.17;100.00;96174.88;1027612;28;20050;-53
2021/08/29 02:09:34;;;;;;;7.90;5.50;;;;;;;10.20;100.00;96172.06;1031436;28;20019;-52
2021/08/29 02:10:06;;;;;;;7.97;5.57;;;;;;;10.21;100.00;96171.16;1031534;28;20014;-53
2021/08/29 02:10:37;;;;;;;6.63;5.50;;;;;;;10.18;100.00;96166.09;1027627;28;20015;-53
2021/08/29 02:11:09;;;;;;;8.25;5.65;;;;;;;10.15;100.00;96165.47;1031949;28;20053;-52
2021/08/29 02:11:41;;;;;;;8.15;5.75;;;;;;;10.15;100.00;96168.91;1035711;28;20010;-52
2021/08/29 02:12:12;;;;;;;7.30;6.13;;;;;;;10.14;100.00;96169.03;1031926;28;20069;-52
2021/08/29 02:12:47;;;;;;;8.57;6.03;;;;;;;10.11;100.00;96173.50;1032129;28;20647;-52
2021/08/29 02:13:20;;;;;;;7.75;5.82;;;;;;;10.09;100.00;96174.56;1035610;28;20014;-52
2021/08/29 02:13:51;;;;;;;7.18;5.68;;;;;;;10.06;100.00;96172.97;1027454;28;20026;-59
2021/08/29 02:14:34;;;;;;;7.22;5.68;;;;;;;10.10;100.00;96171.00;1028659;28;20102;-52
2021/08/29 02:15:06;;;;;;;7.68;5.85;;;;;;;10.12;100.00;96172.56;1031668;28;20081;-53
2021/08/29 02:15:44;;;;;;;7.07;6.20;;;;;;;10.16;100.00;96167.16;1035728;28;20026;-53
2021/08/29 02:16:16;;;;;;;7.55;5.97;;;;;;;10.08;100.00;96151.94;1039516;28;20419;-53
2021/08/29 02:16:46;;;;;;;7.60;5.88;;;;;;;10.21;100.00;96173.78;1031611;28;20019;-52
2021/08/29 02:17:17;;;;;;;9.80;6.75;;;;;;;10.16;100.00;96161.91;1031541;28;20253;-53
2021/08/29 02:17:48;;;;;;;8.85;6.30;;;;;;;10.18;100.00;96166.09;1027587;28;20094;-53
2021/08/29 02:18:19;;;;;;;9.15;6.13;;;;;;;10.15;100.00;96168.91;1023446;29;20225;-53
2021/08/29 02:18:52;;;;;;;7.95;5.97;;;;;;;10.11;100.00;96163.03;1023526;29;20024;-53
2021/08/29 02:19:25;;;;;;;8.00;6.50;;;;;;;10.15;100.00;96168.06;1023701;29;20015;-52
2021/08/29 02:19:57;;;;;;;7.78;6.68;;;;;;;10.15;100.00;96160.22;1025450;28;20027;-53
2021/08/29 02:20:29;;;;;;;8.38;6.95;;;;;;;10.14;100.00;96163.81;1033451;28;20011;-53
2021/08/29 02:21:00;;;;;;;7.57;6.10;;;;;;;10.15;100.00;96170.69;1027486;28;20416;-53
2021/08/29 02:21:30;;;;;;;8.30;6.53;;;;;;;10.18;100.00;96168.72;1027652;28;20027;-53
2021/08/29 02:22:01;;;;;;;8.88;6.57;;;;;;;10.17;100.00;96166.19;1027689;28;20110;-52
2021/08/29 02:22:33;;;;;;;10.63;7.13;;;;;;;10.09;100.00;96167.53;1031568;28;20049;-53
2021/08/29 02:23:03;;;;;;;9.40;7.00;;;;;;;10.13;100.00;96168.16;1031481;28;20375;-53
2021/08/29 02:23:34;;;;;;;9.63;6.82;;;;;;;10.09;100.00;96170.16;1023516;29;20020;-53
2021/08/29 02:24:05;;;;;;;9.15;6.88;;;;;;;10.05;100.00;96163.44;1020199;28;20016;-53
2021/08/29 02:24:35;;;;;;;10.65;7.45;;;;;;;10.02;100.00;96168.03;1023533;29;20209;-52
2021/08/29 02:25:07;;;;;;;7.32;6.35;;;;;;;10.07;100.00;96163.34;1031357;28;20018;-53
2021/08/29 02:25:38;;;;;;;7.90;6.72;;;;;;;10.04;100.00;96167.00;1023507;29;20128;-53
2021/08/29 02:26:08;;;;;;;9.75;7.13;;;;;;;10.06;100.00;96166.88;1023664;29;20020;-53
2021/08/29 02:26:38;;;;;;;8.02;6.53;;;;;;;10.03;100.00;96160.09;1023455;29;20016;-52
2021/08/29 02:27:10;;;;;;;9.70;7.30;;;;;;;9.99;100.00;96165.63;1027494;28;20456;-53
2021/08/29 02:27:40;;;;;;;9.27;7.18;;;;;;;9.99;100.00;96161.22;1031536;28;20102;-53
2021/08/29 02:28:11;;;;;;;10.25;7.30;;;;;;;10.06;100.00;96162.50;1023492;28;20018;-52
2021/08/29 02:28:42;;;;;;;7.82;6.68;;;;;;;10.06;100.00;96167.75;1023600;29;20432;-53
2021/08/29 02:29:13;;;;;;;8.43;7.20;;;;;;;10.04;100.00;96164.41;1031407;28;20026;-53